createdAt,value
2022-08-25T00:01:57.946Z,17.48
2022-08-25T00:04:28.236Z,17.83
2022-08-25T00:07:02.663Z,17.40
2022-08-25T00:09:32.731Z,17.15
2022-08-25T00:12:01.180Z,17.17
2022-08-25T00:14:33.619Z,16.45
2022-08-25T00:17:02.787Z,15.85
2022-08-25T00:19:32.908Z,14.90
2022-08-25T00:22:02.793Z,15.93
2022-08-25T00:24:31.665Z,15.50
2022-08-25T00:27:01.798Z,17.90
2022-08-25T00:29:31.385Z,15.93
2022-08-25T00:32:00.080Z,16.77
2022-08-25T00:34:31.546Z,15.05
2022-08-25T00:36:59.759Z,14.30
2022-08-25T00:39:29.419Z,16.23
2022-08-25T00:41:58.363Z,16.20
2022-08-25T00:44:29.051Z,17.77
2022-08-25T00:47:00.685Z,16.48
2022-08-25T00:49:33.698Z,14.60
2022-08-25T00:52:04.822Z,14.25
2022-08-25T00:54:39.062Z,15.98
2022-08-25T00:57:08.695Z,17.45
2022-08-25T00:59:37.697Z,14.48
2022-08-25T01:02:08.317Z,16.17
2022-08-25T01:04:48.677Z,15.38
2022-08-25T01:07:20.151Z,14.60
2022-08-25T01:09:53.284Z,13.43
2022-08-25T01:12:22.265Z,14.77
2022-08-25T01:14:52.296Z,14.63
2022-08-25T01:17:20.627Z,14.32
2022-08-25T01:19:49.004Z,13.77
2022-08-25T01:22:18.669Z,15.90
2022-08-25T01:24:54.302Z,14.20
2022-08-25T01:27:22.458Z,15.45
2022-08-25T01:29:50.784Z,15.63
2022-08-25T01:32:19.073Z,15.90
2022-08-25T01:34:47.645Z,14.50
2022-08-25T01:37:20.627Z,14.27
2022-08-25T01:39:49.235Z,12.52
2022-08-25T01:42:34.740Z,13.35
2022-08-25T01:45:03.021Z,13.52
2022-08-25T01:47:31.982Z,14.13
2022-08-25T01:50:00.253Z,13.43
2022-08-25T01:52:35.815Z,13.60
2022-08-25T01:55:04.343Z,15.38
2022-08-25T01:57:32.936Z,12.93
2022-08-25T02:00:01.760Z,13.95
2022-08-25T02:02:31.637Z,14.23
2022-08-25T02:05:01.353Z,14.63
2022-08-25T02:07:30.950Z,12.80
2022-08-25T02:10:00.725Z,12.80
2022-08-25T02:12:32.729Z,13.07
2022-08-25T02:15:01.708Z,13.20
2022-08-25T02:17:29.992Z,12.25
2022-08-25T02:19:58.132Z,13.05
2022-08-25T02:22:26.693Z,14.32
2022-08-25T02:24:56.172Z,14.35
2022-08-25T02:27:24.635Z,14.35
2022-08-25T02:29:53.118Z,13.80
2022-08-25T02:32:21.271Z,11.75
2022-08-25T02:34:49.632Z,14.43
2022-08-25T02:37:17.944Z,12.77
2022-08-25T02:39:45.984Z,14.93
2022-08-25T02:42:15.625Z,15.75
2022-08-25T02:44:43.753Z,14.52
2022-08-25T02:47:12.151Z,13.35
2022-08-25T02:49:40.342Z,13.75
2022-08-25T02:52:10.290Z,12.93
2022-08-25T02:54:38.646Z,14.50
2022-08-25T02:57:06.772Z,14.95
2022-08-25T02:59:36.353Z,13.18
2022-08-25T03:02:04.529Z,14.00
2022-08-25T03:04:33.571Z,13.82
2022-08-25T03:07:01.898Z,15.13
2022-08-25T03:09:29.978Z,13.68
2022-08-25T03:12:03.013Z,13.20
2022-08-25T03:14:31.529Z,13.80
2022-08-25T03:17:01.077Z,14.10
2022-08-25T03:19:29.273Z,15.02
2022-08-25T03:21:57.588Z,13.70
2022-08-25T03:24:25.822Z,14.45
2022-08-25T03:26:56.412Z,14.23
2022-08-25T03:29:26.750Z,13.90
2022-08-25T03:31:58.299Z,13.32
2022-08-25T03:34:29.582Z,12.70
2022-08-25T03:36:58.533Z,14.13
2022-08-25T03:39:27.814Z,12.68
2022-08-25T03:41:56.081Z,14.02
2022-08-25T03:44:24.388Z,12.52
2022-08-25T03:46:53.761Z,13.18
2022-08-25T03:49:24.233Z,12.30
2022-08-25T03:51:54.946Z,13.45
2022-08-25T03:54:25.468Z,13.05
2022-08-25T03:56:54.595Z,13.25
2022-08-25T03:59:22.923Z,14.93
2022-08-25T04:01:55.207Z,14.10
2022-08-25T04:04:24.495Z,12.50
2022-08-25T04:06:54.159Z,14.82
2022-08-25T04:09:22.492Z,13.95
2022-08-25T04:11:53.257Z,13.20
2022-08-25T04:14:23.562Z,14.70
2022-08-25T04:16:52.809Z,13.13
2022-08-25T04:19:22.191Z,13.88
2022-08-25T04:21:51.650Z,13.73
2022-08-25T04:24:26.822Z,13.93
2022-08-25T04:26:55.037Z,15.38
2022-08-25T04:29:24.848Z,14.50
2022-08-25T04:31:55.486Z,13.05
2022-08-25T04:34:29.840Z,13.38
2022-08-25T04:37:00.471Z,14.75
2022-08-25T04:39:30.622Z,15.98
2022-08-25T04:42:00.611Z,13.77
2022-08-25T04:44:29.398Z,14.38
2022-08-25T04:46:57.694Z,14.00
2022-08-25T04:49:25.996Z,12.63
2022-08-25T04:51:54.317Z,15.65
2022-08-25T04:54:22.813Z,13.10
2022-08-25T04:56:54.221Z,14.65
2022-08-25T04:59:24.644Z,12.88
2022-08-25T05:01:58.793Z,15.85
2022-08-25T05:04:28.957Z,15.93
2022-08-25T05:06:57.888Z,15.20
2022-08-25T05:09:26.337Z,13.65
2022-08-25T05:11:55.970Z,14.80
2022-08-25T05:14:26.361Z,14.65
2022-08-25T05:16:55.620Z,15.00
2022-08-25T05:19:24.533Z,16.85
2022-08-25T05:21:53.971Z,14.63
2022-08-25T05:24:22.755Z,14.93
2022-08-25T05:26:51.185Z,13.82
2022-08-25T05:29:20.727Z,15.20
2022-08-25T05:31:50.961Z,14.80
2022-08-25T05:34:20.386Z,15.70
2022-08-25T05:36:49.330Z,15.98
2022-08-25T05:39:17.624Z,16.17
2022-08-25T05:41:46.171Z,15.95
2022-08-25T05:44:16.941Z,15.43
2022-08-25T05:46:51.193Z,14.95
2022-08-25T05:49:20.013Z,20.02
2022-08-25T05:51:48.264Z,16.17
2022-08-25T05:54:16.514Z,14.70
2022-08-25T05:56:45.498Z,15.77
2022-08-25T05:59:13.757Z,15.73
2022-08-25T06:01:59.533Z,17.55
2022-08-25T06:04:29.142Z,18.70
2022-08-25T06:06:57.357Z,18.20
2022-08-25T06:09:26.403Z,17.60
2022-08-25T06:11:55.580Z,17.70
2022-08-25T06:14:24.910Z,20.23
2022-08-25T06:16:53.331Z,19.48
2022-08-25T06:19:23.337Z,17.13
2022-08-25T06:21:55.325Z,19.45
2022-08-25T06:24:24.461Z,18.55
2022-08-25T06:26:52.757Z,19.73
2022-08-25T06:29:20.916Z,21.38
2022-08-25T06:31:50.096Z,19.25
2022-08-25T06:34:19.434Z,21.25
2022-08-25T06:36:53.693Z,23.00
2022-08-25T06:39:22.218Z,21.00
2022-08-25T06:41:53.772Z,21.10
2022-08-25T06:44:22.062Z,19.73
2022-08-25T06:46:50.963Z,21.23
2022-08-25T06:49:19.259Z,21.10
2022-08-25T06:51:47.466Z,22.75
2022-08-25T06:54:17.295Z,20.40
2022-08-25T06:56:45.484Z,23.17
2022-08-25T06:59:13.764Z,22.48
2022-08-25T07:01:41.956Z,23.67
2022-08-25T07:04:13.104Z,23.15
2022-08-25T07:06:43.162Z,21.88
2022-08-25T07:09:12.972Z,23.73
2022-08-25T07:11:42.918Z,21.75
2022-08-25T07:14:13.307Z,23.10
2022-08-25T07:16:47.216Z,24.40
2022-08-25T07:19:20.774Z,22.33
2022-08-25T07:21:52.344Z,23.98
2022-08-25T07:24:20.513Z,22.65
2022-08-25T07:26:50.501Z,21.90
2022-08-25T07:29:20.822Z,22.77
2022-08-25T07:32:00.745Z,24.45
2022-08-25T07:34:52.311Z,23.50
2022-08-25T07:37:38.428Z,22.50
2022-08-25T07:40:12.095Z,23.52
2022-08-25T07:42:41.958Z,23.52
2022-08-25T07:45:12.019Z,24.05
2022-08-25T07:47:41.090Z,25.60
2022-08-25T07:50:11.746Z,25.95
2022-08-25T07:52:40.431Z,26.65
2022-08-25T07:55:11.171Z,23.20
2022-08-25T07:57:42.484Z,25.15
2022-08-25T08:00:12.183Z,24.83
2022-08-25T08:02:40.437Z,24.92
2022-08-25T08:05:10.460Z,24.65
2022-08-25T08:07:43.100Z,26.25
2022-08-25T08:13:07.370Z,23.15
2022-08-25T08:15:35.868Z,24.45
2022-08-25T08:18:07.291Z,26.15
2022-08-25T08:20:42.331Z,26.88
2022-08-25T08:23:11.154Z,26.63
2022-08-25T08:25:39.314Z,24.98
2022-08-25T08:28:09.050Z,25.70
2022-08-25T08:30:39.118Z,26.23
2022-08-25T08:33:11.772Z,27.10
2022-08-25T08:35:40.333Z,27.85
2022-08-25T08:38:14.613Z,28.00
2022-08-25T08:41:10.553Z,29.10
2022-08-25T08:43:42.195Z,30.58
2022-08-25T08:46:10.514Z,31.13
2022-08-25T08:48:47.787Z,32.55
2022-08-25T08:51:22.963Z,35.42
2022-08-25T08:53:57.129Z,30.77
2022-08-25T08:56:31.070Z,34.53
2022-08-25T08:59:06.448Z,34.03
2022-08-25T09:01:39.086Z,36.10
2022-08-25T09:04:14.437Z,34.88
2022-08-25T09:06:44.887Z,36.28
2022-08-25T09:09:15.551Z,32.05
2022-08-25T09:11:58.397Z,30.45
2022-08-25T09:14:47.137Z,31.63
2022-08-25T09:17:37.104Z,33.42
2022-08-25T09:20:34.905Z,34.80
2022-08-25T09:23:11.975Z,30.60
2022-08-25T09:25:52.922Z,28.90
2022-08-25T09:28:27.090Z,31.23
2022-08-25T09:31:01.666Z,29.48
2022-08-25T09:33:33.650Z,30.58
2022-08-25T09:36:08.852Z,31.60
2022-08-25T09:38:38.357Z,31.50
2022-08-25T09:41:08.473Z,28.77
2022-08-25T09:43:38.956Z,26.30
2022-08-25T09:46:14.435Z,25.55
2022-08-25T09:48:48.456Z,30.73
2022-08-25T09:51:27.391Z,27.83
2022-08-25T09:53:58.080Z,31.55
2022-08-25T09:56:28.625Z,29.23
2022-08-25T09:59:03.098Z,29.92
2022-08-25T10:01:34.628Z,31.60
2022-08-25T10:04:04.843Z,27.35
2022-08-25T10:06:38.818Z,28.00
2022-08-25T10:09:09.100Z,28.80
2022-08-25T10:11:41.750Z,28.33
2022-08-25T10:14:20.342Z,27.08
2022-08-25T10:16:51.120Z,31.50
2022-08-25T10:19:27.396Z,26.73
2022-08-25T10:22:08.199Z,29.05
2022-08-25T10:24:43.928Z,27.70
2022-08-25T10:27:25.954Z,30.83
2022-08-25T10:30:06.900Z,24.83
2022-08-25T10:33:04.123Z,29.67
2022-08-25T10:35:41.756Z,30.80
2022-08-25T10:38:23.599Z,27.95
2022-08-25T10:41:03.395Z,27.95
2022-08-25T10:43:36.872Z,28.40
2022-08-25T10:46:12.501Z,27.92
2022-08-25T10:48:53.494Z,28.65
2022-08-25T10:51:34.667Z,27.23
2022-08-25T10:54:13.204Z,28.63
2022-08-25T10:56:45.136Z,26.65
2022-08-25T10:59:31.753Z,29.55
2022-08-25T11:02:55.538Z,29.50
2022-08-25T11:05:30.031Z,27.48
2022-08-25T11:08:06.109Z,26.08
2022-08-25T11:10:41.707Z,30.88
2022-08-25T11:13:18.809Z,28.92
2022-08-25T11:16:15.916Z,27.52
2022-08-25T11:18:50.861Z,30.45
2022-08-25T11:21:27.320Z,30.48
2022-08-25T11:24:05.861Z,38.83
2022-08-25T11:26:38.285Z,25.52
2022-08-25T11:29:14.410Z,30.88
2022-08-25T11:31:52.734Z,29.60
2022-08-25T11:34:22.731Z,29.30
2022-08-25T11:36:56.239Z,28.85
2022-08-25T11:39:41.614Z,26.95
2022-08-25T11:42:19.699Z,26.77
2022-08-25T11:44:55.584Z,29.13
2022-08-25T11:48:00.383Z,26.30
2022-08-25T11:50:32.793Z,29.20
2022-08-25T11:53:23.686Z,30.05
2022-08-25T11:56:02.238Z,29.10
2022-08-25T11:58:40.844Z,27.30
2022-08-25T12:01:12.394Z,28.83
2022-08-25T12:03:54.913Z,29.85
2022-08-25T12:06:27.348Z,26.33
2022-08-25T12:09:20.972Z,28.67
2022-08-25T12:11:55.420Z,28.77
2022-08-25T12:14:47.959Z,29.42
2022-08-25T12:17:29.562Z,29.23
2022-08-25T12:20:00.569Z,27.08
2022-08-25T12:22:56.975Z,30.48
2022-08-25T12:25:51.055Z,31.02
2022-08-25T12:28:37.449Z,29.13
2022-08-25T12:31:17.644Z,28.33
2022-08-25T12:34:00.401Z,29.58
2022-08-25T12:36:31.326Z,28.77
2022-08-25T12:39:17.449Z,26.95
2022-08-25T12:41:58.011Z,29.05
2022-08-25T12:44:39.760Z,28.58
2022-08-25T12:47:14.875Z,27.90
2022-08-25T12:49:43.161Z,27.17
2022-08-25T12:52:16.140Z,30.55
2022-08-25T12:54:49.856Z,29.17
2022-08-25T12:57:35.100Z,28.90
2022-08-25T13:00:13.180Z,30.98
2022-08-25T13:03:14.071Z,29.60
2022-08-25T13:06:03.067Z,31.58
2022-08-25T13:09:14.816Z,30.15
2022-08-25T13:11:49.663Z,29.92
2022-08-25T13:14:27.555Z,29.20
2022-08-25T13:16:57.530Z,27.52
2022-08-25T13:19:27.307Z,28.95
2022-08-25T13:22:05.526Z,27.83
2022-08-25T13:24:40.319Z,30.77
2022-08-25T13:27:11.258Z,31.20
2022-08-25T13:29:53.724Z,30.50
2022-08-25T13:32:32.140Z,28.67
2022-08-25T13:35:15.436Z,28.83
2022-08-25T13:37:45.013Z,29.40
2022-08-25T13:40:17.918Z,31.10
2022-08-25T13:42:54.357Z,29.48
2022-08-25T13:45:27.770Z,29.08
2022-08-25T13:47:56.560Z,28.08
2022-08-25T13:50:34.816Z,30.42
2022-08-25T13:53:06.233Z,27.73
2022-08-25T13:55:51.039Z,30.60
2022-08-25T13:58:24.822Z,29.25
2022-08-25T14:01:23.295Z,28.50
2022-08-25T14:04:19.268Z,29.40
2022-08-25T14:06:47.895Z,28.17
2022-08-25T14:09:27.901Z,30.35
2022-08-25T14:11:58.318Z,30.33
2022-08-25T14:14:33.775Z,31.52
2022-08-25T14:17:21.554Z,29.52
2022-08-25T14:19:56.513Z,27.80
2022-08-25T14:22:24.971Z,27.45
2022-08-25T14:24:54.989Z,28.60
2022-08-25T14:27:23.344Z,30.65
2022-08-25T14:29:52.937Z,27.63
2022-08-25T14:32:22.803Z,29.88
2022-08-25T14:34:50.915Z,29.13
2022-08-25T14:37:25.308Z,26.45
2022-08-25T14:39:54.872Z,31.83
2022-08-25T14:42:25.440Z,30.73
2022-08-25T14:44:54.482Z,30.08
2022-08-25T14:47:26.168Z,29.08
2022-08-25T14:49:54.445Z,26.80
2022-08-25T14:52:26.683Z,28.90
2022-08-25T14:54:54.841Z,29.02
2022-08-25T14:57:23.085Z,30.05
2022-08-25T14:59:53.013Z,30.05
2022-08-25T15:02:29.602Z,31.70
2022-08-25T15:05:05.880Z,30.92
2022-08-25T15:07:52.425Z,29.98
2022-08-25T15:10:21.670Z,27.20
2022-08-25T15:12:51.223Z,30.15
2022-08-25T15:15:26.356Z,30.48
2022-08-25T15:17:55.328Z,29.30
2022-08-25T15:20:29.156Z,31.05
2022-08-25T15:22:57.671Z,30.80
2022-08-25T15:25:26.030Z,31.70
2022-08-25T15:27:54.945Z,28.10
2022-08-25T15:30:30.983Z,26.85
2022-08-25T15:32:59.654Z,29.13
2022-08-25T15:35:29.759Z,29.45
2022-08-25T15:37:57.896Z,28.17
2022-08-25T15:40:26.194Z,28.50
2022-08-25T15:42:54.556Z,27.02
2022-08-25T15:45:24.080Z,30.00
2022-08-25T15:47:54.131Z,30.58
2022-08-25T15:50:26.025Z,27.58
2022-08-25T15:52:55.814Z,29.02
2022-08-25T15:55:24.792Z,30.63
2022-08-25T15:57:53.346Z,29.45
2022-08-25T16:00:22.482Z,30.13
2022-08-25T16:02:50.778Z,32.88
2022-08-25T16:05:23.740Z,32.90
2022-08-25T16:07:55.579Z,33.50
2022-08-25T16:10:24.071Z,32.53
2022-08-25T16:12:53.544Z,29.70
2022-08-25T16:15:23.899Z,31.58
2022-08-25T16:17:57.019Z,32.97
2022-08-25T16:20:25.233Z,30.67
2022-08-25T16:22:53.459Z,30.52
2022-08-25T16:25:23.842Z,29.60
2022-08-25T16:27:51.919Z,28.38
2022-08-25T16:30:21.465Z,32.63
2022-08-25T16:32:49.830Z,26.58
2022-08-25T16:35:18.007Z,28.90
2022-08-25T16:37:46.162Z,28.42
2022-08-25T16:40:19.024Z,29.35
2022-08-25T16:42:49.915Z,28.77
2022-08-25T16:45:18.708Z,26.95
2022-08-25T16:47:46.811Z,30.20
2022-08-25T16:50:16.693Z,26.88
2022-08-25T16:53:02.258Z,28.42
2022-08-25T16:55:39.192Z,28.42
2022-08-25T16:58:13.501Z,26.27
2022-08-25T17:00:44.010Z,26.00
2022-08-25T17:03:13.075Z,28.00
2022-08-25T17:05:43.903Z,30.50
2022-08-25T17:08:30.544Z,26.88
2022-08-25T17:11:07.289Z,26.27
2022-08-25T17:13:38.341Z,27.42
2022-08-25T17:16:07.461Z,29.50
2022-08-25T17:18:36.062Z,25.85
2022-08-25T17:21:07.633Z,27.20
2022-08-25T17:23:38.593Z,26.85
2022-08-25T17:26:12.973Z,29.55
2022-08-25T17:28:44.530Z,28.08
2022-08-25T17:31:15.764Z,27.20
2022-08-25T17:33:44.036Z,26.02
2022-08-25T17:36:16.662Z,26.95
2022-08-25T17:38:45.422Z,30.17
2022-08-25T17:41:14.939Z,27.63
2022-08-25T17:43:45.024Z,26.45
2022-08-25T17:46:14.044Z,27.88
2022-08-25T17:48:43.870Z,26.23
2022-08-25T17:51:12.918Z,24.17
2022-08-25T17:53:44.733Z,24.92
2022-08-25T17:56:17.932Z,29.23
2022-08-25T17:58:49.156Z,26.00
2022-08-25T18:01:18.993Z,27.88
2022-08-25T18:03:47.667Z,29.45
2022-08-25T18:06:16.753Z,26.75
2022-08-25T18:08:51.710Z,25.90
2022-08-25T18:11:23.793Z,24.38
2022-08-25T18:13:54.157Z,24.83
2022-08-25T18:16:23.660Z,25.70
2022-08-25T18:18:55.062Z,25.65
2022-08-25T18:21:25.262Z,23.90
2022-08-25T18:23:58.901Z,26.92
2022-08-25T18:26:27.894Z,26.90
2022-08-25T18:28:57.467Z,27.15
2022-08-25T18:31:26.291Z,25.25
2022-08-25T18:33:54.727Z,24.83
2022-08-25T18:36:22.861Z,26.13
2022-08-25T18:39:09.232Z,23.50
2022-08-25T18:41:41.029Z,24.00
2022-08-25T18:44:11.723Z,26.20
2022-08-25T18:46:42.330Z,24.80
2022-08-25T18:49:10.917Z,25.40
2022-08-25T18:51:44.709Z,25.95
2022-08-25T18:54:23.603Z,25.00
2022-08-25T18:56:53.095Z,22.73
2022-08-25T18:59:23.677Z,21.90
2022-08-25T19:01:54.287Z,23.20
2022-08-25T19:04:28.286Z,23.70
2022-08-25T19:07:00.107Z,23.13
2022-08-25T19:09:28.479Z,23.55
2022-08-25T19:11:57.182Z,25.85
2022-08-25T19:14:27.113Z,23.40
2022-08-25T19:16:57.900Z,24.08
2022-08-25T19:19:26.699Z,20.55
2022-08-25T19:21:55.091Z,21.90
2022-08-25T19:24:23.163Z,21.73
2022-08-25T19:26:54.516Z,23.35
2022-08-25T19:29:23.744Z,22.13
2022-08-25T19:31:53.541Z,22.40
2022-08-25T19:34:28.311Z,24.13
2022-08-25T19:36:59.576Z,24.75
2022-08-25T19:39:27.906Z,22.05
2022-08-25T19:41:58.684Z,21.88
2022-08-25T19:44:27.893Z,21.30
2022-08-25T19:46:58.154Z,22.20
2022-08-25T19:49:31.795Z,22.63
2022-08-25T19:52:03.128Z,24.17
2022-08-25T19:54:36.128Z,22.92
2022-08-25T19:57:10.585Z,23.58
2022-08-25T19:59:44.509Z,22.27
2022-08-25T20:02:17.833Z,23.52
2022-08-25T20:04:49.671Z,22.23
2022-08-25T20:07:19.645Z,24.30
2022-08-25T20:09:48.588Z,23.50
2022-08-25T20:12:17.323Z,20.90
2022-08-25T20:14:47.121Z,22.17
2022-08-25T20:17:24.243Z,22.63
2022-08-25T20:19:55.571Z,22.80
2022-08-25T20:22:26.441Z,22.45
2022-08-25T20:24:57.659Z,20.60
2022-08-25T20:27:31.683Z,23.45
2022-08-25T20:30:02.742Z,22.88
2022-08-25T20:32:33.718Z,22.38
2022-08-25T20:35:02.761Z,22.17
2022-08-25T20:37:31.624Z,22.92
2022-08-25T20:40:02.621Z,24.98
2022-08-25T20:42:31.275Z,23.02
2022-08-25T20:45:00.176Z,21.00
2022-08-25T20:47:29.126Z,23.27
2022-08-25T20:50:02.242Z,23.45
2022-08-25T20:52:34.600Z,20.75
2022-08-25T20:55:03.492Z,20.52
2022-08-25T20:57:33.197Z,22.67
2022-08-25T21:00:03.017Z,22.70
2022-08-25T21:02:32.655Z,23.00
2022-08-25T21:05:02.984Z,24.25
2022-08-25T21:07:31.233Z,22.15
2022-08-25T21:09:59.325Z,20.33
2022-08-25T21:12:29.941Z,23.50
2022-08-25T21:14:58.289Z,23.98
2022-08-25T21:17:26.528Z,21.65
2022-08-25T21:19:54.634Z,22.25
2022-08-25T21:22:24.087Z,20.88
2022-08-25T21:24:52.502Z,21.38
2022-08-25T21:27:20.761Z,20.50
2022-08-25T21:29:54.402Z,22.60
2022-08-25T21:32:23.915Z,23.40
2022-08-25T21:34:53.792Z,23.20
2022-08-25T21:37:23.432Z,20.98
2022-08-25T21:39:52.124Z,24.42
2022-08-25T21:42:21.688Z,21.65
2022-08-25T21:44:50.564Z,20.50
2022-08-25T21:47:21.283Z,20.90
2022-08-25T21:49:50.355Z,19.33
2022-08-25T21:52:18.807Z,19.17
2022-08-25T21:54:48.389Z,23.73
2022-08-25T21:57:19.137Z,22.13
2022-08-25T21:59:51.747Z,22.65
2022-08-25T22:02:22.517Z,22.05
2022-08-25T22:04:53.585Z,21.35
2022-08-25T22:07:24.571Z,21.98
2022-08-25T22:09:55.017Z,25.35
2022-08-25T22:12:24.881Z,20.77
2022-08-25T22:14:53.313Z,22.10
2022-08-25T22:17:24.189Z,22.48
2022-08-25T22:19:53.179Z,22.73
2022-08-25T22:22:22.787Z,21.52
2022-08-25T22:24:53.112Z,22.42
2022-08-25T22:27:23.467Z,23.33
2022-08-25T22:29:52.811Z,19.02
2022-08-25T22:32:21.420Z,22.58
2022-08-25T22:34:49.759Z,23.40
2022-08-25T22:37:18.265Z,20.50
2022-08-25T22:39:46.816Z,21.55
2022-08-25T22:42:15.397Z,20.88
2022-08-25T22:44:45.193Z,20.52
2022-08-25T22:47:15.657Z,21.13
2022-08-25T22:49:43.907Z,24.10
2022-08-25T22:52:13.370Z,21.17
2022-08-25T22:54:42.512Z,19.92
2022-08-25T22:57:12.012Z,20.10
2022-08-25T22:59:40.588Z,20.17
2022-08-25T23:02:10.561Z,21.80
2022-08-25T23:04:41.242Z,20.77
2022-08-25T23:07:12.579Z,19.42
2022-08-25T23:09:40.736Z,19.40
2022-08-25T23:12:09.842Z,20.75
2022-08-25T23:14:42.087Z,20.92
2022-08-25T23:17:14.202Z,21.02
2022-08-25T23:19:42.439Z,21.42
2022-08-25T23:22:10.471Z,19.65
2022-08-25T23:24:42.800Z,21.38
2022-08-25T23:27:14.353Z,19.38
2022-08-25T23:29:46.149Z,24.65
2022-08-25T23:32:17.136Z,21.67
2022-08-25T23:34:47.244Z,21.25
2022-08-25T23:37:18.314Z,19.92
2022-08-25T23:39:49.490Z,21.17
2022-08-25T23:42:19.742Z,20.75
2022-08-25T23:44:48.670Z,20.08
2022-08-25T23:47:19.651Z,23.33
2022-08-25T23:49:48.433Z,21.60
2022-08-25T23:52:17.496Z,20.35
2022-08-25T23:54:46.681Z,22.20
2022-08-25T23:57:15.140Z,21.50
2022-08-25T23:59:43.491Z,20.80
